sensor_id;sensor_type;location;lat;lon;timestamp;temperature;humidity
16116;DHT22;8162;47.104;15.432;2023-08-24T05:23:33;22.80;85.20
16116;DHT22;8162;47.104;15.432;2023-08-24T06:30:14;20.80;93.40
16116;DHT22;8162;47.104;15.432;2023-08-24T06:33:17;21.30;92.80
16116;DHT22;8162;47.104;15.432;2023-08-24T06:36:17;21.40;93.20
16116;DHT22;8162;47.104;15.432;2023-08-24T06:39:18;21.40;92.90
16116;DHT22;8162;47.104;15.432;2023-08-24T07:12:30;21.80;91.50
16116;DHT22;8162;47.104;15.432;2023-08-24T07:15:31;21.90;91.50
16116;DHT22;8162;47.104;15.432;2023-08-24T07:18:33;21.90;91.20
16116;DHT22;8162;47.104;15.432;2023-08-24T07:21:34;22.00;91.00
16116;DHT22;8162;47.104;15.432;2023-08-24T07:33:39;22.00;91.30
16116;DHT22;8162;47.104;15.432;2023-08-24T07:36:39;22.50;88.40
16116;DHT22;8162;47.104;15.432;2023-08-24T08:16:06;24.00;50.00
16116;DHT22;8162;47.104;15.432;2023-08-24T08:19:07;23.50;86.60
16116;DHT22;8162;47.104;15.432;2023-08-24T08:22:07;23.50;86.40
16116;DHT22;8162;47.104;15.432;2023-08-24T08:28:09;23.60;85.80
16116;DHT22;8162;47.104;15.432;2023-08-24T08:31:10;23.70;82.30
16116;DHT22;8162;47.104;15.432;2023-08-24T08:34:10;23.90;80.60
16116;DHT22;8162;47.104;15.432;2023-08-24T08:37:11;23.90;81.60
16116;DHT22;8162;47.104;15.432;2023-08-24T08:40:12;24.00;81.30
16116;DHT22;8162;47.104;15.432;2023-08-24T08:46:14;24.20;80.10
16116;DHT22;8162;47.104;15.432;2023-08-24T08:49:17;24.20;80.20
16116;DHT22;8162;47.104;15.432;2023-08-24T08:52:19;24.20;79.20
16116;DHT22;8162;47.104;15.432;2023-08-24T09:10:27;24.60;80.20
16116;DHT22;8162;47.104;15.432;2023-08-24T12:15:20;35.20;53.00
16116;DHT22;8162;47.104;15.432;2023-08-24T12:18:21;36.90;50.60
16116;DHT22;8162;47.104;15.432;2023-08-24T12:24:23;40.80;43.10
16116;DHT22;8162;47.104;15.432;2023-08-24T12:30:26;42.50;38.90
16116;DHT22;8162;47.104;15.432;2023-08-24T12:42:55;42.00;39.00
16116;DHT22;8162;47.104;15.432;2023-08-24T12:45:56;41.80;39.40
16116;DHT22;8162;47.104;15.432;2023-08-24T12:48:56;42.20;40.30
16116;DHT22;8162;47.104;15.432;2023-08-24T12:54:58;44.10;36.60
16116;DHT22;8162;47.104;15.432;2023-08-24T12:57:59;44.20;36.70
16116;DHT22;8162;47.104;15.432;2023-08-24T13:01:00;44.70;36.80
16116;DHT22;8162;47.104;15.432;2023-08-24T13:04:01;45.30;35.50
16116;DHT22;8162;47.104;15.432;2023-08-24T13:07:02;45.70;35.70
16116;DHT22;8162;47.104;15.432;2023-08-24T13:10:03;46.40;33.50
16116;DHT22;8162;47.104;15.432;2023-08-24T13:13:05;46.70;34.20
16116;DHT22;8162;47.104;15.432;2023-08-24T13:16:05;47.00;33.80
16116;DHT22;8162;47.104;15.432;2023-08-24T13:19:06;47.50;33.60
16116;DHT22;8162;47.104;15.432;2023-08-24T13:22:07;47.50;32.70
16116;DHT22;8162;47.104;15.432;2023-08-24T13:25:09;47.00;33.50
16116;DHT22;8162;47.104;15.432;2023-08-24T13:28:09;46.50;33.40
16116;DHT22;8162;47.104;15.432;2023-08-24T13:31:10;45.30;34.80
16116;DHT22;8162;47.104;15.432;2023-08-24T13:34:11;44.70;35.90
16116;DHT22;8162;47.104;15.432;2023-08-24T13:37:11;44.90;36.40
16116;DHT22;8162;47.104;15.432;2023-08-24T13:40:13;45.50;34.60
16116;DHT22;8162;47.104;15.432;2023-08-24T13:43:14;45.30;34.40
16116;DHT22;8162;47.104;15.432;2023-08-24T13:46:14;45.60;35.20
16116;DHT22;8162;47.104;15.432;2023-08-24T13:49:15;45.50;35.00
16116;DHT22;8162;47.104;15.432;2023-08-24T13:52:16;45.40;34.00
16116;DHT22;8162;47.104;15.432;2023-08-24T13:55:19;45.50;35.50
16116;DHT22;8162;47.104;15.432;2023-08-24T13:58:20;44.20;36.20
16116;DHT22;8162;47.104;15.432;2023-08-24T14:19:27;41.50;40.60
16116;DHT22;8162;47.104;15.432;2023-08-24T14:22:27;40.30;42.80
16116;DHT22;8162;47.104;15.432;2023-08-24T14:25:28;39.40;43.30
16116;DHT22;8162;47.104;15.432;2023-08-24T14:31:49;38.30;46.50
16116;DHT22;8162;47.104;15.432;2023-08-24T14:34:49;38.00;46.90
16116;DHT22;8162;47.104;15.432;2023-08-24T14:37:50;37.60;48.70
16116;DHT22;8162;47.104;15.432;2023-08-24T14:40:51;37.50;48.10
16116;DHT22;8162;47.104;15.432;2023-08-24T14:43:51;37.50;48.70
16116;DHT22;8162;47.104;15.432;2023-08-24T14:46:52;37.20;49.10
16116;DHT22;8162;47.104;15.432;2023-08-24T15:38:30;34.40;52.00
16116;DHT22;8162;47.104;15.432;2023-08-24T15:41:32;34.20;54.40
16116;DHT22;8162;47.104;15.432;2023-08-24T15:44:33;34.00;55.30
16116;DHT22;8162;47.104;15.432;2023-08-24T15:47:34;33.60;54.30
16116;DHT22;8162;47.104;15.432;2023-08-24T15:50:34;33.40;56.10
16116;DHT22;8162;47.104;15.432;2023-08-24T15:53:35;33.30;55.90
16116;DHT22;8162;47.104;15.432;2023-08-24T15:56:36;33.20;56.70
16116;DHT22;8162;47.104;15.432;2023-08-24T15:59:37;33.10;57.80
16116;DHT22;8162;47.104;15.432;2023-08-24T16:02:38;33.10;58.20
16116;DHT22;8162;47.104;15.432;2023-08-24T16:05:39;33.00;57.90
16116;DHT22;8162;47.104;15.432;2023-08-24T16:08:40;33.00;58.10
16116;DHT22;8162;47.104;15.432;2023-08-24T16:11:40;32.90;58.20
16116;DHT22;8162;47.104;15.432;2023-08-24T16:14:41;32.80;59.20
16116;DHT22;8162;47.104;15.432;2023-08-24T16:17:42;32.80;58.70
16116;DHT22;8162;47.104;15.432;2023-08-24T16:20:42;32.70;59.30
16116;DHT22;8162;47.104;15.432;2023-08-24T16:23:43;32.60;59.30
16116;DHT22;8162;47.104;15.432;2023-08-24T16:26:44;32.50;60.00
16116;DHT22;8162;47.104;15.432;2023-08-24T16:29:44;32.50;60.00
16116;DHT22;8162;47.104;15.432;2023-08-24T16:32:45;32.40;60.20
16116;DHT22;8162;47.104;15.432;2023-08-24T16:35:47;32.30;61.00
16116;DHT22;8162;47.104;15.432;2023-08-24T16:38:48;32.20;61.40
16116;DHT22;8162;47.104;15.432;2023-08-24T16:41:48;32.00;61.70
16116;DHT22;8162;47.104;15.432;2023-08-24T16:44:49;31.90;61.70
16116;DHT22;8162;47.104;15.432;2023-08-24T16:47:50;31.80;61.70
16116;DHT22;8162;47.104;15.432;2023-08-24T16:50:52;31.70;61.80
16116;DHT22;8162;47.104;15.432;2023-08-24T16:53:52;31.50;62.30
16116;DHT22;8162;47.104;15.432;2023-08-24T16:56:53;31.30;63.40
16116;DHT22;8162;47.104;15.432;2023-08-24T16:59:54;31.10;63.10
16116;DHT22;8162;47.104;15.432;2023-08-24T17:02:54;30.90;63.70
16116;DHT22;8162;47.104;15.432;2023-08-24T17:05:58;30.70;63.80
16116;DHT22;8162;47.104;15.432;2023-08-24T17:08:59;30.50;64.70
16116;DHT22;8162;47.104;15.432;2023-08-24T17:11:59;30.30;64.70
16116;DHT22;8162;47.104;15.432;2023-08-24T17:15:00;30.20;65.10
16116;DHT22;8162;47.104;15.432;2023-08-24T17:18:01;30.00;66.20
16116;DHT22;8162;47.104;15.432;2023-08-24T17:21:03;30.10;66.80
16116;DHT22;8162;47.104;15.432;2023-08-24T17:24:04;29.70;67.00
16116;DHT22;8162;47.104;15.432;2023-08-24T17:27:05;29.50;67.50
16116;DHT22;8162;47.104;15.432;2023-08-24T17:30:07;29.30;68.20
16116;DHT22;8162;47.104;15.432;2023-08-24T17:33:08;29.20;68.30
16116;DHT22;8162;47.104;15.432;2023-08-24T17:36:09;29.00;69.00
16116;DHT22;8162;47.104;15.432;2023-08-24T17:39:10;28.90;69.00
16116;DHT22;8162;47.104;15.432;2023-08-24T17:42:12;28.70;69.50
16116;DHT22;8162;47.104;15.432;2023-08-24T17:45:13;28.60;70.40
16116;DHT22;8162;47.104;15.432;2023-08-24T17:48:14;28.50;70.90
16116;DHT22;8162;47.104;15.432;2023-08-24T17:51:15;28.30;71.10
16116;DHT22;8162;47.104;15.432;2023-08-24T17:54:16;28.20;71.50
16116;DHT22;8162;47.104;15.432;2023-08-24T17:57:16;28.10;71.80
16116;DHT22;8162;47.104;15.432;2023-08-24T18:00:18;28.00;72.00
16116;DHT22;8162;47.104;15.432;2023-08-24T20:22:31;24.00;50.00
16116;DHT22;8162;47.104;15.432;2023-08-24T20:25:32;24.00;50.00
16116;DHT22;8162;47.104;15.432;2023-08-24T20:28:33;25.10;83.80
16116;DHT22;8162;47.104;15.432;2023-08-24T20:31:37;25.00;84.10
16116;DHT22;8162;47.104;15.432;2023-08-24T20:34:38;25.00;84.10
16116;DHT22;8162;47.104;15.432;2023-08-24T20:37:39;25.00;84.00
16116;DHT22;8162;47.104;15.432;2023-08-24T20:40:40;25.00;84.20
16116;DHT22;8162;47.104;15.432;2023-08-24T20:43:41;25.00;84.30
16116;DHT22;8162;47.104;15.432;2023-08-24T20:46:44;24.90;84.40
16116;DHT22;8162;47.104;15.432;2023-08-24T20:49:46;24.90;84.50
16116;DHT22;8162;47.104;15.432;2023-08-24T20:52:57;24.80;84.60
16116;DHT22;8162;47.104;15.432;2023-08-24T20:55:57;24.80;84.90
16116;DHT22;8162;47.104;15.432;2023-08-24T20:58:58;24.80;84.70
16116;DHT22;8162;47.104;15.432;2023-08-24T21:01:59;24.70;85.00
16116;DHT22;8162;47.104;15.432;2023-08-24T21:05:00;24.70;84.70
16116;DHT22;8162;47.104;15.432;2023-08-24T21:08:04;24.60;84.90
16116;DHT22;8162;47.104;15.432;2023-08-24T21:11:05;24.60;85.30
16116;DHT22;8162;47.104;15.432;2023-08-24T21:14:05;24.60;85.00
16116;DHT22;8162;47.104;15.432;2023-08-24T21:17:06;24.50;85.50
16116;DHT22;8162;47.104;15.432;2023-08-24T21:20:07;24.50;85.80
16116;DHT22;8162;47.104;15.432;2023-08-24T21:23:08;24.40;86.50
16116;DHT22;8162;47.104;15.432;2023-08-24T21:26:09;24.40;86.30
16116;DHT22;8162;47.104;15.432;2023-08-24T21:29:10;24.40;86.30
16116;DHT22;8162;47.104;15.432;2023-08-24T21:32:10;24.40;86.00
16116;DHT22;8162;47.104;15.432;2023-08-24T21:35:11;24.40;86.10
16116;DHT22;8162;47.104;15.432;2023-08-24T21:38:13;24.40;86.40
16116;DHT22;8162;47.104;15.432;2023-08-24T21:41:14;24.40;86.90
16116;DHT22;8162;47.104;15.432;2023-08-24T21:44:14;24.40;86.70
16116;DHT22;8162;47.104;15.432;2023-08-24T21:47:15;24.30;86.60
16116;DHT22;8162;47.104;15.432;2023-08-24T21:50:16;24.30;87.00
16116;DHT22;8162;47.104;15.432;2023-08-24T21:53:17;24.20;86.60
16116;DHT22;8162;47.104;15.432;2023-08-24T21:56:17;24.20;86.90
16116;DHT22;8162;47.104;15.432;2023-08-24T21:59:18;24.20;87.00
16116;DHT22;8162;47.104;15.432;2023-08-24T22:02:19;24.20;87.20
16116;DHT22;8162;47.104;15.432;2023-08-24T22:05:20;24.10;87.30
16116;DHT22;8162;47.104;15.432;2023-08-24T22:08:20;24.00;87.30
16116;DHT22;8162;47.104;15.432;2023-08-24T22:11:21;24.00;88.00
16116;DHT22;8162;47.104;15.432;2023-08-24T22:14:22;24.00;87.80
16116;DHT22;8162;47.104;15.432;2023-08-24T22:17:22;24.00;88.00
16116;DHT22;8162;47.104;15.432;2023-08-24T22:20:23;24.00;88.10
16116;DHT22;8162;47.104;15.432;2023-08-24T22:23:25;24.00;88.40
16116;DHT22;8162;47.104;15.432;2023-08-24T22:26:25;23.90;88.50
16116;DHT22;8162;47.104;15.432;2023-08-24T22:29:26;23.90;88.60
16116;DHT22;8162;47.104;15.432;2023-08-24T22:32:31;23.90;88.50
16116;DHT22;8162;47.104;15.432;2023-08-24T22:35:32;23.90;88.60
16116;DHT22;8162;47.104;15.432;2023-08-24T22:38:33;23.90;88.50
16116;DHT22;8162;47.104;15.432;2023-08-24T22:41:34;23.80;88.60
16116;DHT22;8162;47.104;15.432;2023-08-24T22:44:34;23.80;88.40
16116;DHT22;8162;47.104;15.432;2023-08-24T22:47:35;23.70;88.50
16116;DHT22;8162;47.104;15.432;2023-08-24T22:50:36;23.70;88.40
16116;DHT22;8162;47.104;15.432;2023-08-24T22:53:37;23.70;88.70
16116;DHT22;8162;47.104;15.432;2023-08-24T22:56:38;23.60;89.00
16116;DHT22;8162;47.104;15.432;2023-08-24T22:59:39;23.60;89.30
16116;DHT22;8162;47.104;15.432;2023-08-24T23:02:40;23.60;89.40
16116;DHT22;8162;47.104;15.432;2023-08-24T23:05:41;23.60;89.40
16116;DHT22;8162;47.104;15.432;2023-08-24T23:08:42;23.60;89.60
16116;DHT22;8162;47.104;15.432;2023-08-24T23:11:43;23.60;89.70
16116;DHT22;8162;47.104;15.432;2023-08-24T23:14:43;23.60;89.80
16116;DHT22;8162;47.104;15.432;2023-08-24T23:17:44;23.50;89.70
16116;DHT22;8162;47.104;15.432;2023-08-24T23:20:45;23.50;89.80
16116;DHT22;8162;47.104;15.432;2023-08-24T23:23:46;23.50;89.70
16116;DHT22;8162;47.104;15.432;2023-08-24T23:26:46;23.50;89.70
16116;DHT22;8162;47.104;15.432;2023-08-24T23:29:47;23.50;90.00
16116;DHT22;8162;47.104;15.432;2023-08-24T23:32:47;23.40;89.90
16116;DHT22;8162;47.104;15.432;2023-08-24T23:35:48;23.40;90.40
16116;DHT22;8162;47.104;15.432;2023-08-24T23:38:49;23.30;90.80
16116;DHT22;8162;47.104;15.432;2023-08-24T23:41:50;23.30;90.50
16116;DHT22;8162;47.104;15.432;2023-08-24T23:44:50;23.30;90.70
16116;DHT22;8162;47.104;15.432;2023-08-24T23:47:52;23.30;90.30
16116;DHT22;8162;47.104;15.432;2023-08-24T23:50:52;23.30;90.60
16116;DHT22;8162;47.104;15.432;2023-08-24T23:53:53;23.20;90.80
16116;DHT22;8162;47.104;15.432;2023-08-24T23:56:54;23.20;90.70
16116;DHT22;8162;47.104;15.432;2023-08-24T23:59:55;23.20;90.50
